San Antonio, TX (78239)

5:22 PM CDT on October 31, 2014 (GMT -0500)
Woodcrest | Change Station
CLOSE
Current Station
Personal Weather Station
Location: Live Oak, TX
Elevation: 827 ft
Nearby Weather Stations

Elev 827 ft 29.54 °N, 98.34 °W | Updated 3 seconds ago

Clear
Clear
74.8 °F
Feels Like 76 °F
N
4.5
Wind Variable Wind from NW
Gusts 9.8 mph

Today
High -- | Low -- °F
--% Chance of Precip.
Yesterday
High -- | Low -- °F
Precip. -- in
7:45 AM 6:47 PM
First Quarter, 59% visible
Pressure 30.19 in
Visibility 10.0 miles
Clouds Clear
Heat Index 76 °F
Dew Point 34 °F
Humidity 22%
Rainfall 0.37 in
Snow Depth Not available.
UV 2 out of 12
Pollen 4.80 out of 12
Air Quality Not available.
Flu Activity Not available.
METAR KRND 312158Z AUTO 02010KT 10SM CLR 25/03 A3021 RMK AO2 SLP224 T02470025

More Conditions Fewer Conditions

Pressure 30.19 in
Visibility 10.0 miles
Clouds Clear
Heat Index 76 °F
Dew Point 34 °F
Humidity 22%
Rainfall 0.37 in
Snow Depth Not available.
UV 2 out of 12
Pollen 4.80 out of 12
Air Quality Not available.
Flu Activity Not available.
METAR KRND 312158Z AUTO 02010KT 10SM CLR 25/03 A3021 RMK AO2 SLP224 T02470025

More Conditions Fewer Conditions

10-Day Weather Forecast

Almanac

Astronomy

Oct. 31, 2014 Rise Set
Actual Time
Civil Twilight
Nautical Twilight
Astronomical Twilight
Moon
Length of Visible Light
Length of Day
Tomorrow will be .
, % of the Moon is Illuminated

Today's Extremes

State Highs State Lows

Community

WunderPhotos

Upload Photos

1,766,757 photos uploaded!

WunderBlogs® & News

Nearby

Air Quality

  Air Quality AQ Index Pollutant
Not available.

Snow Depth

Station Depth Elevation

Earthquake Activity

City Distance Mag. Time & Date
Minimum magnitude displayed is 2.5.

Coastal Water Temperatures

Place Temperature

Nearby Weather Stations